首页
METAR-TAF:

METAR-TAF

机场 :

瓦岱國際機場

永珍, 老挝

纬度: 17-57N, 经度: 102-34E, 海拔: 171米

当前天气观测

该预报发布于19分钟前的07:00 UTC
风速2节,风向
温度 29°C
湿度 40%
气压 1014 hPa
能見度: 8000

METAR: VLVT 240700Z 18002KT 8000 NSC 29/14 Q1014 NOSIG

时间: 14:19 (07:19 UTC)

预报

该预报发布于2小时和19分钟前的05:00 UTC
预报有效从24日的 06点(UTC)到 25日的 06点(UTC)
风速4节,风向
能見度: 8000
少量云层高于2000英尺
少量云层高于10000英尺
短暂存在
从 24日的 14点(UTC)到 24日的 20点(UTC)
能見度: 3000
轻雾

TAF: VLVT 240500Z 2406/2506 09004KT 8000 FEW020 FEW100 TEMPO 2414/2420 3000 BR NSC

超过4000个机场的气象观测和天气预报(METAR&TAF报告)。

可查询的气象台以黄色和红色小点在地图上表示。

将鼠标移到小点上方,可查看气象台名称。

然后点击查看天气观测和预报。

如需切换地图:点击带黑十字的绿色按钮放大地图;点击带横线的绿色按钮缩小地图;或者点击绿色箭头查看邻近地区的地图。


METAR-TAF: